»·PEaware :: N2494V KRNO-KRDD

N2494V :: KRNO-KRDD

FLIGHT INFORMATION

Flight Status: Arrived
Operator: Privately registered:
United States
More flights under this callsign
Pilot: Sally S. (18014)
Aircraft: Unknown
(DA62)
More flights by this aircraft type
Origin: KRNO Reno/Tahoe Intl
United States
Destination: KRDD Redding Mun
United States
More flights between these airports :: More routes between these airports
Route: +FMG8 FMG V200 MRGGO V332 RBL
File this flight plan on PilotEdge
Remarks:
Altitude:
(Current/Filed)
12,000ft
Speed:
(Current/Filed)
165kts
Departed: 18-Apr-18 01:54 PM
Arrived: 18-Apr-18 02:59 PM
Distance/Time
Traveled:
131nm/1:04
Distance/Time
To Go:
Arrived

Flight Plot

Page will automatically refresh every two minutes.

Flight plan parsing failed; only flown route is shown


Map Options




Map Legend


Flown Route
Filed Route
Departure Airport
Arrival Airport
Navaid (VOR, NDB)
Fix

Horizontal Profiles

Position Reports

Time Latitude Longitude Heading Altitude Ground
Speed
18-Apr-18 13:14 39.498603 -119.764707 180 4419ft 0kts
18-Apr-18 13:15 39.498603 -119.764707 180 4419ft 0kts
18-Apr-18 13:16 39.498603 -119.764707 180 4419ft 0kts
18-Apr-18 13:17 39.498603 -119.764707 180 4419ft 0kts
18-Apr-18 13:18 39.498603 -119.764707 180 4419ft 0kts
18-Apr-18 13:19 39.498603 -119.764707 180 4419ft 0kts
18-Apr-18 13:20 39.498603 -119.764707 180 4419ft 0kts
18-Apr-18 13:21 39.498603 -119.764707 180 4419ft 0kts
18-Apr-18 13:22 39.498603 -119.764707 180 4419ft 0kts
18-Apr-18 13:23 39.498603 -119.764707 180 4419ft 0kts
18-Apr-18 13:24 39.498603 -119.764707 180 4419ft 0kts
18-Apr-18 13:25 39.498603 -119.764707 180 4419ft 0kts
18-Apr-18 13:26 39.498603 -119.764707 180 4419ft 0kts
18-Apr-18 13:27 39.498603 -119.764707 180 4419ft 0kts
18-Apr-18 13:28 39.498603 -119.764707 180 4419ft 0kts
18-Apr-18 13:29 39.498603 -119.764707 180 4419ft 0kts
18-Apr-18 13:30 39.498603 -119.764707 180 4419ft 0kts
18-Apr-18 13:31 39.498603 -119.764707 180 4419ft 0kts
18-Apr-18 13:32 39.498603 -119.764707 180 4419ft 0kts
18-Apr-18 13:33 39.498603 -119.764707 180 4419ft 0kts
18-Apr-18 13:34 39.498603 -119.764707 180 4419ft 0kts
18-Apr-18 13:35 39.498603 -119.764707 180 4419ft 0kts
18-Apr-18 13:36 39.498603 -119.764707 180 4419ft 0kts
18-Apr-18 13:37 39.498603 -119.764707 180 4419ft 0kts
18-Apr-18 13:38 39.498603 -119.764707 180 4419ft 0kts
18-Apr-18 13:39 39.498603 -119.764707 180 4419ft 0kts
18-Apr-18 13:40 39.498603 -119.764707 180 4419ft 0kts
18-Apr-18 13:41 39.498572 -119.764712 188 4419ft 1kts
18-Apr-18 13:42 39.498520 -119.764724 191 4419ft 0kts
18-Apr-18 13:43 39.498421 -119.764752 193 4419ft 0kts
18-Apr-18 13:44 39.498315 -119.764791 197 4419ft 0kts
18-Apr-18 13:45 39.498213 -119.764838 201 4419ft 0kts
18-Apr-18 13:46 39.498067 -119.764998 233 4419ft 5kts
18-Apr-18 13:47 39.500424 -119.765499 1 4419ft 11kts
18-Apr-18 13:48 39.505007 -119.765469 0 4419ft 21kts
18-Apr-18 13:49 39.510440 -119.765283 22 4419ft 11kts
18-Apr-18 13:50 39.510932 -119.765720 271 4419ft 0kts
18-Apr-18 13:51 39.510932 -119.765720 271 4419ft 0kts
18-Apr-18 13:52 39.510007 -119.766689 182 4419ft 40kts
18-Apr-18 13:53 39.482064 -119.767033 190 5353ft 104kts
18-Apr-18 13:54 39.454431 -119.768996 185 6753ft 101kts
18-Apr-18 13:55 39.427007 -119.766896 146 8132ft 106kts
18-Apr-18 13:56 39.436802 -119.737289 27 9369ft 112kts
18-Apr-18 13:57 39.463413 -119.715027 31 10489ft 118kts
18-Apr-18 13:58 39.491105 -119.691631 19 11618ft 121kts
18-Apr-18 13:59 39.509267 -119.713790 249 12049ft 144kts
18-Apr-18 14:00 39.497024 -119.768115 254 12084ft 170kts
18-Apr-18 14:01 39.487884 -119.828826 254 12087ft 175kts
18-Apr-18 14:02 39.478853 -119.889063 252 12081ft 172kts
18-Apr-18 14:03 39.470177 -119.945566 252 12085ft 170kts
18-Apr-18 14:04 39.461106 -120.005480 252 12082ft 170kts
18-Apr-18 14:05 39.451997 -120.065736 252 12079ft 171kts
18-Apr-18 14:06 39.442858 -120.126008 252 12074ft 171kts
18-Apr-18 14:07 39.433087 -120.184842 250 12069ft 170kts
18-Apr-18 14:08 39.421871 -120.244517 250 12062ft 170kts
18-Apr-18 14:09 39.410616 -120.304209 250 12054ft 170kts
18-Apr-18 14:10 39.399383 -120.363593 250 12045ft 170kts
18-Apr-18 14:11 39.388147 -120.422800 250 12035ft 170kts
18-Apr-18 14:12 39.377044 -120.481160 250 12032ft 169kts
18-Apr-18 14:13 39.365967 -120.539205 250 12035ft 169kts
18-Apr-18 14:14 39.354722 -120.597936 250 12034ft 169kts
18-Apr-18 14:15 39.345263 -120.647231 250 12034ft 169kts
18-Apr-18 14:16 39.334920 -120.700972 249 12035ft 169kts
18-Apr-18 14:17 39.323789 -120.758665 249 12033ft 169kts
18-Apr-18 14:18 39.310521 -120.827211 249 12027ft 170kts
18-Apr-18 14:19 39.299054 -120.886274 249 12023ft 170kts
18-Apr-18 14:20 39.289512 -120.935286 249 12019ft 170kts
18-Apr-18 14:21 39.278116 -120.993564 250 11970ft 170kts
18-Apr-18 14:22 39.266743 -121.051592 251 11971ft 169kts
18-Apr-18 14:23 39.253299 -121.120046 252 11971ft 169kts
18-Apr-18 14:24 39.243686 -121.168874 253 11971ft 169kts
18-Apr-18 14:25 39.232093 -121.227665 253 11973ft 170kts
18-Apr-18 14:26 39.230081 -121.284313 308 11978ft 179kts
18-Apr-18 14:27 39.266614 -121.326363 315 11984ft 179kts
18-Apr-18 14:28 39.304344 -121.367299 315 11989ft 179kts
18-Apr-18 14:29 39.342077 -121.408021 315 11994ft 179kts
18-Apr-18 14:30 39.379785 -121.448743 315 12000ft 179kts
18-Apr-18 14:31 39.417544 -121.489571 315 12006ft 180kts
18-Apr-18 14:32 39.455436 -121.530605 315 12011ft 180kts
18-Apr-18 14:33 39.492357 -121.570647 315 12014ft 181kts
18-Apr-18 14:34 39.530909 -121.612515 315 12016ft 181kts
18-Apr-18 14:35 39.568591 -121.653501 315 12017ft 181kts
18-Apr-18 14:36 39.605878 -121.694115 315 12018ft 182kts
18-Apr-18 14:37 39.642900 -121.734509 315 11954ft 185kts
18-Apr-18 14:38 39.684026 -121.779483 315 11284ft 202kts
18-Apr-18 14:39 39.726610 -121.826079 316 10413ft 207kts
18-Apr-18 14:40 39.770405 -121.874085 316 9519ft 207kts
18-Apr-18 14:41 39.813423 -121.921326 316 8637ft 206kts
18-Apr-18 14:42 39.856677 -121.968908 316 7746ft 205kts
18-Apr-18 14:43 39.899745 -122.016365 317 6853ft 204kts
18-Apr-18 14:44 39.942730 -122.063392 318 6041ft 198kts
18-Apr-18 14:45 39.982279 -122.106912 317 6017ft 180kts
18-Apr-18 14:46 40.019899 -122.148570 317 6018ft 177kts
18-Apr-18 14:47 40.065857 -122.170921 344 6019ft 180kts
18-Apr-18 14:48 40.111823 -122.186043 344 6017ft 180kts
18-Apr-18 14:49 40.157916 -122.201301 344 5502ft 198kts
18-Apr-18 14:50 40.212093 -122.219597 344 4507ft 203kts
18-Apr-18 14:51 40.264892 -122.237406 344 4011ft 184kts
18-Apr-18 14:52 40.312519 -122.253221 344 3861ft 181kts
18-Apr-18 14:53 40.363148 -122.271239 341 3021ft 186kts
18-Apr-18 14:54 40.405482 -122.290166 340 2490ft 134kts
18-Apr-18 14:55 40.441402 -122.294443 0 1683ft 133kts
18-Apr-18 14:56 40.471881 -122.294784 0 1219ft 100kts
18-Apr-18 14:57 40.499021 -122.294897 1 579ft 89kts
18-Apr-18 14:58 40.508249 -122.295850 301 508ft 0kts
18-Apr-18 14:59 40.508889 -122.297524 359 508ft 10kts

Navigation Log

Ident Type
Flight plan parsing failed, navigation log unavailable